sensor_id;sensor_type;location;lat;lon;timestamp;pressure;altitude;pressure_sealevel;temperature;humidity
3102;BME280;1561;42.666;23.392;2024-03-29T00:06:48;94965.03;;;13.41;95.91
3102;BME280;1561;42.666;23.392;2024-03-29T00:09:38;94887.91;;;12.90;94.72
3102;BME280;1561;42.666;23.392;2024-03-29T00:12:48;94934.09;;;13.25;93.29
3102;BME280;1561;42.666;23.392;2024-03-29T00:19:09;94972.16;;;13.47;92.11
3102;BME280;1561;42.666;23.392;2024-03-29T00:21:43;94970.25;;;13.49;91.50
3102;BME280;1561;42.666;23.392;2024-03-29T00:24:37;94977.72;;;13.60;90.48
3102;BME280;1561;42.666;23.392;2024-03-29T00:27:13;94985.22;;;13.71;88.73
3102;BME280;1561;42.666;23.392;2024-03-29T00:29:41;94990.13;;;13.65;88.93
3102;BME280;1561;42.666;23.392;2024-03-29T00:32:16;94994.09;;;13.59;89.05
3102;BME280;1561;42.666;23.392;2024-03-29T00:34:49;94969.38;;;13.23;91.79
3102;BME280;1561;42.666;23.392;2024-03-29T00:37:29;94959.34;;;13.03;94.17
3102;BME280;1561;42.666;23.392;2024-03-29T00:40:05;94990.59;;;12.89;98.49
3102;BME280;1561;42.666;23.392;2024-03-29T00:42:35;94952.34;;;12.51;100.00
3102;BME280;1561;42.666;23.392;2024-03-29T00:45:17;94995.84;;;12.87;100.00
3102;BME280;1561;42.666;23.392;2024-03-29T00:47:50;94998.19;;;12.81;100.00
3102;BME280;1561;42.666;23.392;2024-03-29T00:50:48;94994.13;;;12.78;100.00
3102;BME280;1561;42.666;23.392;2024-03-29T00:53:21;94999.72;;;12.64;100.00
3102;BME280;1561;42.666;23.392;2024-03-29T00:56:15;94970.06;;;12.35;100.00
3102;BME280;1561;42.666;23.392;2024-03-29T00:58:50;94997.50;;;12.52;100.00
3102;BME280;1561;42.666;23.392;2024-03-29T01:01:44;95010.34;;;12.42;100.00
3102;BME280;1561;42.666;23.392;2024-03-29T01:04:22;95007.28;;;12.29;100.00
3102;BME280;1561;42.666;23.392;2024-03-29T01:06:49;95013.91;;;12.22;100.00
3102;BME280;1561;42.666;23.392;2024-03-29T01:09:32;95003.16;;;12.09;100.00
3102;BME280;1561;42.666;23.392;2024-03-29T01:12:39;95007.88;;;12.04;100.00
3102;BME280;1561;42.666;23.392;2024-03-29T01:15:08;95020.13;;;12.10;100.00
3102;BME280;1561;42.666;23.392;2024-03-29T01:17:50;95024.59;;;11.89;100.00
3102;BME280;1561;42.666;23.392;2024-03-29T01:23:10;94997.00;;;11.93;100.00
3102;BME280;1561;42.666;23.392;2024-03-29T01:25:44;95013.53;;;11.98;100.00
3102;BME280;1561;42.666;23.392;2024-03-29T01:28:27;95031.06;;;12.03;100.00
3102;BME280;1561;42.666;23.392;2024-03-29T01:31:08;95038.19;;;12.09;100.00
3102;BME280;1561;42.666;23.392;2024-03-29T01:33:36;94991.06;;;11.64;100.00
3102;BME280;1561;42.666;23.392;2024-03-29T01:36:12;95031.72;;;12.14;100.00
3102;BME280;1561;42.666;23.392;2024-03-29T01:39:05;95044.78;;;12.21;100.00
3102;BME280;1561;42.666;23.392;2024-03-29T01:41:43;95045.34;;;12.15;100.00
3102;BME280;1561;42.666;23.392;2024-03-29T01:44:35;95044.63;;;12.22;100.00
3102;BME280;1561;42.666;23.392;2024-03-29T01:47:33;95052.03;;;12.25;100.00
3102;BME280;1561;42.666;23.392;2024-03-29T01:50:20;95055.91;;;12.48;100.00
3102;BME280;1561;42.666;23.392;2024-03-29T01:53:09;95051.06;;;12.45;100.00
3102;BME280;1561;42.666;23.392;2024-03-29T01:56:03;95054.75;;;12.24;100.00
3102;BME280;1561;42.666;23.392;2024-03-29T01:59:25;95065.25;;;12.11;100.00
3102;BME280;1561;42.666;23.392;2024-03-29T02:02:07;95076.06;;;12.15;100.00
3102;BME280;1561;42.666;23.392;2024-03-29T02:04:58;95077.66;;;12.16;100.00
3102;BME280;1561;42.666;23.392;2024-03-29T02:07:39;95090.75;;;11.94;100.00
3102;BME280;1561;42.666;23.392;2024-03-29T02:10:11;95080.44;;;11.56;100.00
3102;BME280;1561;42.666;23.392;2024-03-29T02:13:02;95074.44;;;11.66;100.00
3102;BME280;1561;42.666;23.392;2024-03-29T02:15:58;95103.06;;;11.51;100.00
3102;BME280;1561;42.666;23.392;2024-03-29T02:21:54;95020.28;;;10.54;100.00
3102;BME280;1561;42.666;23.392;2024-03-29T02:27:50;95124.44;;;11.40;100.00
3102;BME280;1561;42.666;23.392;2024-03-29T02:30:38;95131.25;;;11.60;100.00
3102;BME280;1561;42.666;23.392;2024-03-29T02:33:12;95067.78;;;11.45;100.00
3102;BME280;1561;42.666;23.392;2024-03-29T02:38:43;95159.84;;;12.03;100.00
3102;BME280;1561;42.666;23.392;2024-03-29T02:41:31;95153.66;;;11.96;100.00
3102;BME280;1561;42.666;23.392;2024-03-29T02:44:27;95135.72;;;11.68;100.00
3102;BME280;1561;42.666;23.392;2024-03-29T02:47:19;95139.22;;;11.76;100.00
3102;BME280;1561;42.666;23.392;2024-03-29T02:50:13;95146.09;;;11.85;100.00
3102;BME280;1561;42.666;23.392;2024-03-29T02:53:04;95158.50;;;11.90;100.00
3102;BME280;1561;42.666;23.392;2024-03-29T02:56:05;95138.16;;;11.69;100.00
3102;BME280;1561;42.666;23.392;2024-03-29T02:58:52;95157.53;;;11.81;100.00
3102;BME280;1561;42.666;23.392;2024-03-29T03:01:46;95157.97;;;11.86;100.00
3102;BME280;1561;42.666;23.392;2024-03-29T03:04:27;95164.03;;;11.95;100.00
3102;BME280;1561;42.666;23.392;2024-03-29T03:07:31;95169.41;;;11.92;100.00
3102;BME280;1561;42.666;23.392;2024-03-29T03:10:27;95169.28;;;11.84;100.00
3102;BME280;1561;42.666;23.392;2024-03-29T03:13:22;95162.81;;;11.80;100.00
3102;BME280;1561;42.666;23.392;2024-03-29T03:16:10;95170.50;;;11.80;100.00
3102;BME280;1561;42.666;23.392;2024-03-29T03:19:00;95169.53;;;11.81;100.00
3102;BME280;1561;42.666;23.392;2024-03-29T03:21:38;95185.06;;;11.89;100.00
3102;BME280;1561;42.666;23.392;2024-03-29T03:24:13;95173.00;;;11.70;100.00
3102;BME280;1561;42.666;23.392;2024-03-29T03:27:26;95199.72;;;11.77;100.00
3102;BME280;1561;42.666;23.392;2024-03-29T03:30:08;95202.28;;;11.77;100.00
3102;BME280;1561;42.666;23.392;2024-03-29T03:32:50;95207.78;;;11.73;100.00
3102;BME280;1561;42.666;23.392;2024-03-29T03:35:32;95098.97;;;10.90;100.00
3102;BME280;1561;42.666;23.392;2024-03-29T03:38:03;95219.94;;;11.90;100.00
3102;BME280;1561;42.666;23.392;2024-03-29T03:40:36;95226.91;;;11.78;100.00
3102;BME280;1561;42.666;23.392;2024-03-29T03:43:14;95223.25;;;11.71;100.00
3102;BME280;1561;42.666;23.392;2024-03-29T03:46:04;95233.88;;;11.67;100.00
3102;BME280;1561;42.666;23.392;2024-03-29T03:49:07;95245.13;;;11.85;100.00
3102;BME280;1561;42.666;23.392;2024-03-29T03:51:54;95235.13;;;11.42;100.00
3102;BME280;1561;42.666;23.392;2024-03-29T03:54:29;95248.31;;;11.17;100.00
3102;BME280;1561;42.666;23.392;2024-03-29T03:57:15;95225.25;;;10.67;100.00
3102;BME280;1561;42.666;23.392;2024-03-29T04:00:17;95241.91;;;11.32;100.00
3102;BME280;1561;42.666;23.392;2024-03-29T04:03:09;95243.00;;;11.60;100.00
3102;BME280;1561;42.666;23.392;2024-03-29T04:05:39;95224.75;;;11.14;100.00
3102;BME280;1561;42.666;23.392;2024-03-29T04:08:19;95260.72;;;11.52;100.00
3102;BME280;1561;42.666;23.392;2024-03-29T04:11:11;95254.09;;;11.19;100.00
3102;BME280;1561;42.666;23.392;2024-03-29T04:13:42;95259.25;;;11.29;100.00
3102;BME280;1561;42.666;23.392;2024-03-29T04:16:33;95273.19;;;11.45;100.00
3102;BME280;1561;42.666;23.392;2024-03-29T04:19:07;95265.19;;;11.59;100.00
3102;BME280;1561;42.666;23.392;2024-03-29T04:21:52;95283.81;;;11.61;100.00
3102;BME280;1561;42.666;23.392;2024-03-29T04:24:48;95284.97;;;11.78;100.00
3102;BME280;1561;42.666;23.392;2024-03-29T04:27:56;95300.97;;;11.70;100.00
3102;BME280;1561;42.666;23.392;2024-03-29T05:21:14;95348.75;;;18.83;60.13
3102;BME280;1561;42.666;23.392;2024-03-29T05:24:10;95344.16;;;20.56;53.37
3102;BME280;1561;42.666;23.392;2024-03-29T05:27:35;95350.09;;;20.50;51.47
3102;BME280;1561;42.666;23.392;2024-03-29T05:31:08;95340.09;;;19.66;54.02
3102;BME280;1561;42.666;23.392;2024-03-29T05:34:00;95353.56;;;19.99;53.71
3102;BME280;1561;42.666;23.392;2024-03-29T05:36:51;95267.97;;;19.10;54.20
3102;BME280;1561;42.666;23.392;2024-03-29T05:39:38;95367.72;;;20.11;54.11
3102;BME280;1561;42.666;23.392;2024-03-29T05:42:32;95353.69;;;23.26;47.30
3102;BME280;1561;42.666;23.392;2024-03-29T05:45:25;95352.47;;;24.58;43.84
3102;BME280;1561;42.666;23.392;2024-03-29T05:48:19;95350.88;;;21.57;47.46
3102;BME280;1561;42.666;23.392;2024-03-29T05:51:10;95354.69;;;23.25;46.10
3102;BME280;1561;42.666;23.392;2024-03-29T05:54:03;95348.38;;;23.99;43.44
3102;BME280;1561;42.666;23.392;2024-03-29T05:59:45;95353.41;;;23.01;44.65
3102;BME280;1561;42.666;23.392;2024-03-29T06:02:16;95266.97;;;21.21;45.12
3102;BME280;1561;42.666;23.392;2024-03-29T06:04:50;95364.22;;;21.96;45.86
3102;BME280;1561;42.666;23.392;2024-03-29T06:07:40;95362.63;;;23.03;43.85
3102;BME280;1561;42.666;23.392;2024-03-29T06:10:34;95354.63;;;22.24;44.79
3102;BME280;1561;42.666;23.392;2024-03-29T06:13:04;95360.31;;;22.81;44.55
3102;BME280;1561;42.666;23.392;2024-03-29T06:15:57;95350.34;;;23.97;42.22
3102;BME280;1561;42.666;23.392;2024-03-29T06:18:46;95381.34;;;20.56;46.86
3102;BME280;1561;42.666;23.392;2024-03-29T06:21:17;95380.31;;;21.78;45.18
3102;BME280;1561;42.666;23.392;2024-03-29T06:24:10;95372.44;;;22.95;44.09
3102;BME280;1561;42.666;23.392;2024-03-29T06:27:13;95379.53;;;22.73;42.75
3102;BME280;1561;42.666;23.392;2024-03-29T06:29:52;95377.03;;;23.73;42.64
3102;BME280;1561;42.666;23.392;2024-03-29T06:32:39;95365.75;;;25.51;40.22
3102;BME280;1561;42.666;23.392;2024-03-29T06:35:12;95359.56;;;24.12;41.68
3102;BME280;1561;42.666;23.392;2024-03-29T06:37:50;95349.50;;;25.92;39.59
3102;BME280;1561;42.666;23.392;2024-03-29T06:40:46;95347.69;;;24.42;40.39
3102;BME280;1561;42.666;23.392;2024-03-29T06:43:40;95351.69;;;23.21;42.25
3102;BME280;1561;42.666;23.392;2024-03-29T06:46:13;95382.75;;;23.23;42.92
3102;BME280;1561;42.666;23.392;2024-03-29T06:48:40;95381.25;;;23.87;42.56
3102;BME280;1561;42.666;23.392;2024-03-29T06:51:10;95386.88;;;24.23;42.36
3102;BME280;1561;42.666;23.392;2024-03-29T06:53:39;95387.25;;;24.33;42.43
3102;BME280;1561;42.666;23.392;2024-03-29T06:56:23;95389.91;;;24.07;43.62
3102;BME280;1561;42.666;23.392;2024-03-29T06:58:56;95380.75;;;24.81;41.83
3102;BME280;1561;42.666;23.392;2024-03-29T07:01:27;95367.38;;;25.08;40.70
3102;BME280;1561;42.666;23.392;2024-03-29T07:04:02;95384.03;;;25.58;40.14
3102;BME280;1561;42.666;23.392;2024-03-29T07:06:39;95382.22;;;25.52;39.59
3102;BME280;1561;42.666;23.392;2024-03-29T07:09:14;95385.91;;;26.49;38.21
3102;BME280;1561;42.666;23.392;2024-03-29T07:11:47;95373.66;;;26.25;38.09
3102;BME280;1561;42.666;23.392;2024-03-29T07:14:18;95382.34;;;25.26;39.07
3102;BME280;1561;42.666;23.392;2024-03-29T07:16:52;95383.47;;;26.05;38.20
3102;BME280;1561;42.666;23.392;2024-03-29T07:19:40;95384.75;;;26.20;38.01
3102;BME280;1561;42.666;23.392;2024-03-29T07:22:25;95390.69;;;25.85;38.04
3102;BME280;1561;42.666;23.392;2024-03-29T07:24:59;95381.06;;;26.28;36.86
3102;BME280;1561;42.666;23.392;2024-03-29T07:27:28;95400.31;;;26.15;37.25
3102;BME280;1561;42.666;23.392;2024-03-29T07:30:17;95393.38;;;26.88;37.13
3102;BME280;1561;42.666;23.392;2024-03-29T07:32:47;95391.09;;;25.51;37.85
3102;BME280;1561;42.666;23.392;2024-03-29T07:35:16;95383.63;;;26.10;37.52
3102;BME280;1561;42.666;23.392;2024-03-29T07:37:46;95391.47;;;27.13;36.37
3102;BME280;1561;42.666;23.392;2024-03-29T07:40:20;95387.81;;;27.73;35.71
3102;BME280;1561;42.666;23.392;2024-03-29T07:42:49;95382.78;;;28.01;35.46
3102;BME280;1561;42.666;23.392;2024-03-29T07:45:22;95389.22;;;25.95;36.35
3102;BME280;1561;42.666;23.392;2024-03-29T07:47:50;95389.91;;;26.51;36.67
3102;BME280;1561;42.666;23.392;2024-03-29T07:50:18;95387.22;;;26.15;36.91
3102;BME280;1561;42.666;23.392;2024-03-29T07:52:45;95369.38;;;26.06;37.04
3102;BME280;1561;42.666;23.392;2024-03-29T07:55:13;95401.13;;;24.40;38.75
3102;BME280;1561;42.666;23.392;2024-03-29T07:57:41;95391.16;;;28.44;34.66
3102;BME280;1561;42.666;23.392;2024-03-29T08:00:09;95383.63;;;29.61;33.23
3102;BME280;1561;42.666;23.392;2024-03-29T08:02:46;95380.59;;;27.27;35.08
3102;BME280;1561;42.666;23.392;2024-03-29T08:05:14;95400.16;;;28.02;34.21
3102;BME280;1561;42.666;23.392;2024-03-29T08:07:50;95387.16;;;27.00;34.95
3102;BME280;1561;42.666;23.392;2024-03-29T08:10:31;95387.75;;;28.43;34.29
3102;BME280;1561;42.666;23.392;2024-03-29T08:13:02;95380.84;;;30.01;32.75
3102;BME280;1561;42.666;23.392;2024-03-29T08:15:29;95379.38;;;28.35;34.11
3102;BME280;1561;42.666;23.392;2024-03-29T08:18:01;95367.75;;;28.42;34.06
3102;BME280;1561;42.666;23.392;2024-03-29T08:20:29;95375.00;;;28.86;34.21
3102;BME280;1561;42.666;23.392;2024-03-29T08:22:59;95370.72;;;28.57;34.10
3102;BME280;1561;42.666;23.392;2024-03-29T08:25:30;95367.75;;;28.42;34.30
3102;BME280;1561;42.666;23.392;2024-03-29T08:28:12;95332.06;;;28.69;34.11
3102;BME280;1561;42.666;23.392;2024-03-29T08:30:42;95362.59;;;29.10;33.56
3102;BME280;1561;42.666;23.392;2024-03-29T08:33:18;95352.84;;;29.22;32.85
3102;BME280;1561;42.666;23.392;2024-03-29T08:35:48;95342.84;;;29.64;33.38
3102;BME280;1561;42.666;23.392;2024-03-29T08:38:18;95356.00;;;29.80;32.69
3102;BME280;1561;42.666;23.392;2024-03-29T08:40:48;95352.38;;;27.93;34.36
3102;BME280;1561;42.666;23.392;2024-03-29T08:43:20;95343.81;;;29.91;33.25
3102;BME280;1561;42.666;23.392;2024-03-29T08:45:50;95344.34;;;29.76;32.89
3102;BME280;1561;42.666;23.392;2024-03-29T08:48:30;95348.66;;;29.38;33.15
3102;BME280;1561;42.666;23.392;2024-03-29T08:51:06;95346.84;;;28.98;32.91
3102;BME280;1561;42.666;23.392;2024-03-29T08:53:38;95339.19;;;29.53;32.95
3102;BME280;1561;42.666;23.392;2024-03-29T08:56:05;95348.19;;;28.27;34.44
3102;BME280;1561;42.666;23.392;2024-03-29T08:58:36;95345.19;;;27.89;34.71
3102;BME280;1561;42.666;23.392;2024-03-29T09:01:04;95338.59;;;29.34;33.50
3102;BME280;1561;42.666;23.392;2024-03-29T09:03:39;95329.97;;;29.67;33.13
3102;BME280;1561;42.666;23.392;2024-03-29T09:06:13;95323.75;;;29.00;33.08
3102;BME280;1561;42.666;23.392;2024-03-29T09:08:42;95314.28;;;29.44;33.22
3102;BME280;1561;42.666;23.392;2024-03-29T09:11:12;95323.72;;;27.51;34.40
3102;BME280;1561;42.666;23.392;2024-03-29T09:13:42;95314.66;;;28.80;33.87
3102;BME280;1561;42.666;23.392;2024-03-29T09:16:11;95298.34;;;30.71;32.10
3102;BME280;1561;42.666;23.392;2024-03-29T09:18:57;95302.84;;;30.33;32.59
3102;BME280;1561;42.666;23.392;2024-03-29T09:21:30;95295.09;;;29.15;33.11
3102;BME280;1561;42.666;23.392;2024-03-29T09:23:57;95294.59;;;29.02;33.68
3102;BME280;1561;42.666;23.392;2024-03-29T09:26:25;95300.38;;;29.77;33.38
3102;BME280;1561;42.666;23.392;2024-03-29T09:28:54;95266.91;;;29.44;32.25
3102;BME280;1561;42.666;23.392;2024-03-29T09:31:24;95265.81;;;30.44;31.98
3102;BME280;1561;42.666;23.392;2024-03-29T09:33:55;95291.19;;;29.63;32.00
3102;BME280;1561;42.666;23.392;2024-03-29T09:36:29;95295.19;;;27.13;33.78
3102;BME280;1561;42.666;23.392;2024-03-29T09:38:57;95276.47;;;27.92;34.03
3102;BME280;1561;42.666;23.392;2024-03-29T09:41:26;95260.00;;;27.96;33.90
3102;BME280;1561;42.666;23.392;2024-03-29T09:44:03;95267.84;;;30.21;32.38
3102;BME280;1561;42.666;23.392;2024-03-29T09:46:32;95222.09;;;30.70;31.44
3102;BME280;1561;42.666;23.392;2024-03-29T09:49:03;95203.88;;;29.71;31.73
3102;BME280;1561;42.666;23.392;2024-03-29T09:51:39;95259.38;;;29.52;32.35
3102;BME280;1561;42.666;23.392;2024-03-29T09:54:09;95211.78;;;30.95;30.35
3102;BME280;1561;42.666;23.392;2024-03-29T09:56:39;95250.97;;;29.67;31.18
3102;BME280;1561;42.666;23.392;2024-03-29T09:59:07;95252.50;;;29.18;31.94
3102;BME280;1561;42.666;23.392;2024-03-29T10:01:37;95245.41;;;28.63;32.13
3102;BME280;1561;42.666;23.392;2024-03-29T10:04:10;95246.59;;;28.21;32.81
3102;BME280;1561;42.666;23.392;2024-03-29T10:06:40;95251.00;;;29.23;32.08
3102;BME280;1561;42.666;23.392;2024-03-29T10:09:11;95256.31;;;27.63;33.83
3102;BME280;1561;42.666;23.392;2024-03-29T10:11:51;95251.59;;;27.53;33.92
3102;BME280;1561;42.666;23.392;2024-03-29T10:14:21;95248.09;;;27.48;34.25
3102;BME280;1561;42.666;23.392;2024-03-29T10:16:52;95247.16;;;27.54;34.43
3102;BME280;1561;42.666;23.392;2024-03-29T10:19:21;95246.63;;;27.98;33.82
3102;BME280;1561;42.666;23.392;2024-03-29T10:21:49;95256.78;;;26.42;35.21
3102;BME280;1561;42.666;23.392;2024-03-29T10:24:17;95244.59;;;26.47;34.94
3102;BME280;1561;42.666;23.392;2024-03-29T10:26:49;95186.72;;;28.34;33.20
3102;BME280;1561;42.666;23.392;2024-03-29T10:29:27;95244.84;;;27.34;33.82
3102;BME280;1561;42.666;23.392;2024-03-29T10:31:58;95247.53;;;27.16;34.54
3102;BME280;1561;42.666;23.392;2024-03-29T10:34:43;95226.31;;;27.18;34.30
3102;BME280;1561;42.666;23.392;2024-03-29T10:37:26;95236.88;;;29.45;32.73
3102;BME280;1561;42.666;23.392;2024-03-29T10:40:09;95229.28;;;28.99;32.44
3102;BME280;1561;42.666;23.392;2024-03-29T10:42:43;95239.59;;;26.93;34.63
3102;BME280;1561;42.666;23.392;2024-03-29T10:45:19;95227.84;;;29.08;32.73
3102;BME280;1561;42.666;23.392;2024-03-29T10:48:27;95222.44;;;29.14;32.50
3102;BME280;1561;42.666;23.392;2024-03-29T10:51:02;95221.81;;;28.96;32.36
3102;BME280;1561;42.666;23.392;2024-03-29T10:53:40;95213.69;;;28.30;33.12
3102;BME280;1561;42.666;23.392;2024-03-29T10:56:22;95224.78;;;28.71;32.28
3102;BME280;1561;42.666;23.392;2024-03-29T10:59:10;95210.41;;;28.00;33.56
3102;BME280;1561;42.666;23.392;2024-03-29T11:02:12;95217.16;;;26.97;34.13
3102;BME280;1561;42.666;23.392;2024-03-29T11:04:48;95210.19;;;27.21;33.94
3102;BME280;1561;42.666;23.392;2024-03-29T11:10:44;95172.09;;;26.89;34.75
3102;BME280;1561;42.666;23.392;2024-03-29T11:13:26;95197.63;;;28.15;33.63
3102;BME280;1561;42.666;23.392;2024-03-29T11:16:00;95200.75;;;28.79;32.79
3102;BME280;1561;42.666;23.392;2024-03-29T11:18:31;95198.59;;;28.48;33.35
3102;BME280;1561;42.666;23.392;2024-03-29T11:21:01;95205.91;;;26.79;34.47
3102;BME280;1561;42.666;23.392;2024-03-29T11:23:33;95167.63;;;27.42;34.89
3102;BME280;1561;42.666;23.392;2024-03-29T11:26:11;95185.97;;;27.30;34.36
3102;BME280;1561;42.666;23.392;2024-03-29T11:28:48;95195.72;;;27.64;34.44
3102;BME280;1561;42.666;23.392;2024-03-29T11:31:23;95187.53;;;27.08;34.06
3102;BME280;1561;42.666;23.392;2024-03-29T11:34:00;95201.06;;;25.99;35.55
3102;BME280;1561;42.666;23.392;2024-03-29T11:36:45;95201.63;;;26.96;35.33
3102;BME280;1561;42.666;23.392;2024-03-29T11:39:21;95210.06;;;26.39;35.81
3102;BME280;1561;42.666;23.392;2024-03-29T11:41:51;95195.25;;;25.72;37.03
3102;BME280;1561;42.666;23.392;2024-03-29T11:44:20;95192.97;;;26.18;36.72
3102;BME280;1561;42.666;23.392;2024-03-29T11:46:58;95188.91;;;26.70;36.03
3102;BME280;1561;42.666;23.392;2024-03-29T11:49:27;95193.19;;;26.17;36.00
3102;BME280;1561;42.666;23.392;2024-03-29T11:52:03;95195.31;;;25.84;36.59
3102;BME280;1561;42.666;23.392;2024-03-29T11:54:37;95185.25;;;25.87;36.55
3102;BME280;1561;42.666;23.392;2024-03-29T11:57:24;95193.16;;;25.14;37.55
3102;BME280;1561;42.666;23.392;2024-03-29T11:59:59;95186.81;;;25.28;38.23
3102;BME280;1561;42.666;23.392;2024-03-29T12:02:31;95183.41;;;25.21;38.22
3102;BME280;1561;42.666;23.392;2024-03-29T12:05:00;95173.88;;;25.57;38.69
3102;BME280;1561;42.666;23.392;2024-03-29T12:07:34;95176.31;;;26.90;36.51
3102;BME280;1561;42.666;23.392;2024-03-29T12:10:08;95177.38;;;26.71;36.69
3102;BME280;1561;42.666;23.392;2024-03-29T12:12:39;95174.50;;;26.61;36.78
3102;BME280;1561;42.666;23.392;2024-03-29T12:15:09;95164.47;;;26.40;37.39
3102;BME280;1561;42.666;23.392;2024-03-29T12:17:40;95177.72;;;26.45;37.23
3102;BME280;1561;42.666;23.392;2024-03-29T12:20:17;95171.00;;;24.54;38.60
3102;BME280;1561;42.666;23.392;2024-03-29T12:22:51;95176.75;;;25.49;38.38
3102;BME280;1561;42.666;23.392;2024-03-29T12:25:22;95161.06;;;25.49;38.71
3102;BME280;1561;42.666;23.392;2024-03-29T12:27:52;95176.91;;;25.54;38.70
3102;BME280;1561;42.666;23.392;2024-03-29T12:30:20;95142.28;;;25.95;38.54
3102;BME280;1561;42.666;23.392;2024-03-29T12:33:12;95176.06;;;24.87;39.31
3102;BME280;1561;42.666;23.392;2024-03-29T12:35:46;95155.03;;;25.00;40.09
3102;BME280;1561;42.666;23.392;2024-03-29T12:38:30;95146.91;;;25.57;39.37
3102;BME280;1561;42.666;23.392;2024-03-29T12:41:00;95160.06;;;25.93;38.84
3102;BME280;1561;42.666;23.392;2024-03-29T12:43:31;95168.28;;;26.26;38.03
3102;BME280;1561;42.666;23.392;2024-03-29T12:46:16;95164.69;;;25.48;39.46
3102;BME280;1561;42.666;23.392;2024-03-29T12:49:01;95154.16;;;25.37;39.62
3102;BME280;1561;42.666;23.392;2024-03-29T12:51:30;95164.50;;;25.68;39.26
3102;BME280;1561;42.666;23.392;2024-03-29T12:54:04;95162.59;;;25.75;39.50
3102;BME280;1561;42.666;23.392;2024-03-29T12:56:40;95155.84;;;26.21;38.19
3102;BME280;1561;42.666;23.392;2024-03-29T12:59:20;95157.16;;;26.30;38.53
3102;BME280;1561;42.666;23.392;2024-03-29T13:01:50;95147.78;;;26.23;38.11
3102;BME280;1561;42.666;23.392;2024-03-29T13:04:25;95138.47;;;25.91;39.26
3102;BME280;1561;42.666;23.392;2024-03-29T13:07:09;95158.69;;;25.66;38.82
3102;BME280;1561;42.666;23.392;2024-03-29T13:09:39;95141.38;;;25.65;38.46
3102;BME280;1561;42.666;23.392;2024-03-29T13:12:10;95157.66;;;25.49;38.93
3102;BME280;1561;42.666;23.392;2024-03-29T13:14:42;95149.72;;;25.98;38.41
3102;BME280;1561;42.666;23.392;2024-03-29T13:17:10;95144.16;;;26.24;37.98
3102;BME280;1561;42.666;23.392;2024-03-29T13:19:38;95147.50;;;26.13;37.54
3102;BME280;1561;42.666;23.392;2024-03-29T13:22:09;95153.63;;;25.71;38.33
3102;BME280;1561;42.666;23.392;2024-03-29T13:24:38;95148.72;;;25.38;38.29
3102;BME280;1561;42.666;23.392;2024-03-29T13:27:10;95149.75;;;25.55;38.39
3102;BME280;1561;42.666;23.392;2024-03-29T13:29:48;95145.97;;;25.51;38.19
3102;BME280;1561;42.666;23.392;2024-03-29T13:32:16;95144.25;;;24.59;39.11
3102;BME280;1561;42.666;23.392;2024-03-29T13:34:46;95100.06;;;24.51;38.73
3102;BME280;1561;42.666;23.392;2024-03-29T13:37:16;95138.19;;;24.96;38.96
3102;BME280;1561;42.666;23.392;2024-03-29T13:39:44;95096.13;;;24.97;38.31
3102;BME280;1561;42.666;23.392;2024-03-29T13:42:15;95142.25;;;25.16;38.32
3102;BME280;1561;42.666;23.392;2024-03-29T13:45:00;95103.38;;;24.40;38.54
3102;BME280;1561;42.666;23.392;2024-03-29T13:47:29;95142.53;;;25.26;37.83
3102;BME280;1561;42.666;23.392;2024-03-29T13:50:09;95139.41;;;25.18;38.15
3102;BME280;1561;42.666;23.392;2024-03-29T13:52:38;95140.41;;;25.41;38.07
3102;BME280;1561;42.666;23.392;2024-03-29T13:55:08;95136.28;;;25.70;37.07
3102;BME280;1561;42.666;23.392;2024-03-29T13:57:36;95145.63;;;25.41;37.37
3102;BME280;1561;42.666;23.392;2024-03-29T14:00:13;95138.31;;;25.50;37.10
3102;BME280;1561;42.666;23.392;2024-03-29T14:02:45;95142.31;;;25.34;37.65
3102;BME280;1561;42.666;23.392;2024-03-29T14:05:12;95134.56;;;25.82;36.95
3102;BME280;1561;42.666;23.392;2024-03-29T14:07:39;95130.50;;;25.68;38.12
3102;BME280;1561;42.666;23.392;2024-03-29T14:10:08;95132.31;;;26.03;36.78
3102;BME280;1561;42.666;23.392;2024-03-29T14:12:36;95133.88;;;25.68;37.20
3102;BME280;1561;42.666;23.392;2024-03-29T14:15:06;95133.75;;;25.81;37.12
3102;BME280;1561;42.666;23.392;2024-03-29T14:17:35;95128.81;;;25.06;37.32
3102;BME280;1561;42.666;23.392;2024-03-29T14:20:03;95135.03;;;25.12;37.78
3102;BME280;1561;42.666;23.392;2024-03-29T14:22:31;95122.56;;;25.92;36.80
3102;BME280;1561;42.666;23.392;2024-03-29T14:24:59;95117.91;;;25.58;37.67
3102;BME280;1561;42.666;23.392;2024-03-29T14:27:28;95126.97;;;24.58;38.30
3102;BME280;1561;42.666;23.392;2024-03-29T14:29:57;95123.88;;;24.43;38.30
3102;BME280;1561;42.666;23.392;2024-03-29T14:32:29;95061.44;;;24.35;38.29
3102;BME280;1561;42.666;23.392;2024-03-29T14:35:01;95126.97;;;24.89;37.96
3102;BME280;1561;42.666;23.392;2024-03-29T14:37:31;95120.84;;;24.39;37.95
3102;BME280;1561;42.666;23.392;2024-03-29T14:40:00;95126.16;;;24.57;38.41
3102;BME280;1561;42.666;23.392;2024-03-29T14:42:30;95120.72;;;25.14;37.68
3102;BME280;1561;42.666;23.392;2024-03-29T14:45:01;95122.81;;;25.30;37.30
3102;BME280;1561;42.666;23.392;2024-03-29T14:47:35;95120.53;;;24.91;37.41
3102;BME280;1561;42.666;23.392;2024-03-29T14:50:16;95116.69;;;24.94;37.36
3102;BME280;1561;42.666;23.392;2024-03-29T14:53:01;95113.97;;;24.82;37.85
3102;BME280;1561;42.666;23.392;2024-03-29T14:55:31;95104.03;;;24.91;37.70
3102;BME280;1561;42.666;23.392;2024-03-29T14:58:05;95100.69;;;24.53;37.79
3102;BME280;1561;42.666;23.392;2024-03-29T15:00:33;95111.50;;;24.56;37.85
3102;BME280;1561;42.666;23.392;2024-03-29T15:03:03;95120.25;;;24.75;38.37
3102;BME280;1561;42.666;23.392;2024-03-29T15:05:34;95121.59;;;24.53;38.42
3102;BME280;1561;42.666;23.392;2024-03-29T15:08:01;95124.94;;;24.29;38.75
3102;BME280;1561;42.666;23.392;2024-03-29T15:10:30;95127.91;;;24.39;38.60
3102;BME280;1561;42.666;23.392;2024-03-29T15:13:01;95124.16;;;24.28;38.91
3102;BME280;1561;42.666;23.392;2024-03-29T15:15:31;95126.25;;;24.44;38.89
3102;BME280;1561;42.666;23.392;2024-03-29T15:18:04;95126.44;;;24.49;38.38
3102;BME280;1561;42.666;23.392;2024-03-29T15:20:41;95120.13;;;24.63;38.60
3102;BME280;1561;42.666;23.392;2024-03-29T15:23:09;95054.66;;;23.96;38.63